sensor_id;sensor_type;location;lat;lon;timestamp;P1;durP1;ratioP1;P2;durP2;ratioP2
3267;SDS011;1646;52.450;13.326;2023-06-22T00:00:43;14.63;;;12.87;;
3267;SDS011;1646;52.450;13.326;2023-06-22T00:05:42;14.80;;;13.30;;
3267;SDS011;1646;52.450;13.326;2023-06-22T00:10:40;13.43;;;12.03;;
3267;SDS011;1646;52.450;13.326;2023-06-22T00:15:40;14.87;;;12.30;;
3267;SDS011;1646;52.450;13.326;2023-06-22T00:20:39;14.10;;;12.03;;
3267;SDS011;1646;52.450;13.326;2023-06-22T00:25:37;13.67;;;12.00;;
3267;SDS011;1646;52.450;13.326;2023-06-22T00:30:37;13.90;;;12.43;;
3267;SDS011;1646;52.450;13.326;2023-06-22T00:35:37;12.60;;;11.13;;
3267;SDS011;1646;52.450;13.326;2023-06-22T00:40:38;15.07;;;10.00;;
3267;SDS011;1646;52.450;13.326;2023-06-22T00:45:36;15.40;;;10.20;;
3267;SDS011;1646;52.450;13.326;2023-06-22T00:50:37;13.97;;;11.10;;
3267;SDS011;1646;52.450;13.326;2023-06-22T00:55:36;10.83;;;9.70;;
3267;SDS011;1646;52.450;13.326;2023-06-22T01:00:38;13.27;;;10.43;;
3267;SDS011;1646;52.450;13.326;2023-06-22T01:05:38;15.70;;;11.17;;
3267;SDS011;1646;52.450;13.326;2023-06-22T01:10:39;18.37;;;9.77;;
3267;SDS011;1646;52.450;13.326;2023-06-22T01:15:42;14.73;;;9.10;;
3267;SDS011;1646;52.450;13.326;2023-06-22T01:20:47;9.80;;;8.80;;
3267;SDS011;1646;52.450;13.326;2023-06-22T01:25:46;10.63;;;9.40;;
3267;SDS011;1646;52.450;13.326;2023-06-22T01:30:52;11.80;;;10.10;;
3267;SDS011;1646;52.450;13.326;2023-06-22T01:36:00;9.93;;;8.87;;
3267;SDS011;1646;52.450;13.326;2023-06-22T01:40:59;10.10;;;9.10;;
3267;SDS011;1646;52.450;13.326;2023-06-22T01:46:00;10.53;;;9.43;;
3267;SDS011;1646;52.450;13.326;2023-06-22T01:50:59;10.90;;;9.73;;
3267;SDS011;1646;52.450;13.326;2023-06-22T01:55:58;11.30;;;9.50;;
3267;SDS011;1646;52.450;13.326;2023-06-22T02:01:01;10.57;;;9.50;;
3267;SDS011;1646;52.450;13.326;2023-06-22T02:06:07;11.93;;;10.57;;
3267;SDS011;1646;52.450;13.326;2023-06-22T02:11:09;12.27;;;9.60;;
3267;SDS011;1646;52.450;13.326;2023-06-22T02:16:10;11.53;;;9.30;;
3267;SDS011;1646;52.450;13.326;2023-06-22T02:21:09;13.83;;;11.43;;
3267;SDS011;1646;52.450;13.326;2023-06-22T02:26:08;12.97;;;11.50;;
3267;SDS011;1646;52.450;13.326;2023-06-22T02:31:06;13.70;;;11.47;;
3267;SDS011;1646;52.450;13.326;2023-06-22T02:36:06;12.57;;;10.50;;
3267;SDS011;1646;52.450;13.326;2023-06-22T02:41:05;13.27;;;11.73;;
3267;SDS011;1646;52.450;13.326;2023-06-22T02:46:04;14.03;;;12.53;;
3267;SDS011;1646;52.450;13.326;2023-06-22T02:51:02;16.47;;;12.33;;
3267;SDS011;1646;52.450;13.326;2023-06-22T02:56:02;15.00;;;12.80;;
3267;SDS011;1646;52.450;13.326;2023-06-22T03:01:05;15.10;;;12.10;;
3267;SDS011;1646;52.450;13.326;2023-06-22T03:06:06;14.97;;;13.13;;
3267;SDS011;1646;52.450;13.326;2023-06-22T03:11:06;14.17;;;12.77;;
3267;SDS011;1646;52.450;13.326;2023-06-22T03:16:05;14.70;;;13.20;;
3267;SDS011;1646;52.450;13.326;2023-06-22T03:21:03;13.90;;;12.23;;
3267;SDS011;1646;52.450;13.326;2023-06-22T03:26:02;14.53;;;13.03;;
3267;SDS011;1646;52.450;13.326;2023-06-22T03:31:02;14.20;;;12.70;;
3267;SDS011;1646;52.450;13.326;2023-06-22T03:36:05;13.90;;;12.47;;
3267;SDS011;1646;52.450;13.326;2023-06-22T03:41:03;14.63;;;13.13;;
3267;SDS011;1646;52.450;13.326;2023-06-22T03:46:03;14.03;;;11.90;;
3267;SDS011;1646;52.450;13.326;2023-06-22T03:51:02;12.20;;;10.87;;
3267;SDS011;1646;52.450;13.326;2023-06-22T03:56:00;15.93;;;11.97;;
3267;SDS011;1646;52.450;13.326;2023-06-22T04:00:58;14.37;;;12.87;;
3267;SDS011;1646;52.450;13.326;2023-06-22T04:05:58;12.20;;;10.90;;
3267;SDS011;1646;52.450;13.326;2023-06-22T04:10:57;13.73;;;11.20;;
3267;SDS011;1646;52.450;13.326;2023-06-22T04:15:55;15.10;;;10.73;;
3267;SDS011;1646;52.450;13.326;2023-06-22T04:20:53;11.53;;;10.20;;
3267;SDS011;1646;52.450;13.326;2023-06-22T04:25:53;13.63;;;10.10;;
3267;SDS011;1646;52.450;13.326;2023-06-22T04:30:53;12.43;;;10.10;;
3267;SDS011;1646;52.450;13.326;2023-06-22T04:35:55;13.00;;;10.57;;
3267;SDS011;1646;52.450;13.326;2023-06-22T04:40:55;13.47;;;11.70;;
3267;SDS011;1646;52.450;13.326;2023-06-22T04:45:53;13.60;;;11.47;;
3267;SDS011;1646;52.450;13.326;2023-06-22T04:50:51;12.27;;;10.90;;
3267;SDS011;1646;52.450;13.326;2023-06-22T04:55:49;12.90;;;10.50;;
3267;SDS011;1646;52.450;13.326;2023-06-22T05:00:51;13.17;;;9.47;;
3267;SDS011;1646;52.450;13.326;2023-06-22T05:05:49;14.33;;;9.63;;
3267;SDS011;1646;52.450;13.326;2023-06-22T05:10:47;10.10;;;8.57;;
3267;SDS011;1646;52.450;13.326;2023-06-22T05:16:02;15.80;;;8.80;;
3267;SDS011;1646;52.450;13.326;2023-06-22T05:21:00;10.27;;;8.57;;
3267;SDS011;1646;52.450;13.326;2023-06-22T05:25:59;12.27;;;8.50;;
3267;SDS011;1646;52.450;13.326;2023-06-22T05:30:57;9.53;;;8.50;;
3267;SDS011;1646;52.450;13.326;2023-06-22T05:35:57;10.80;;;8.33;;
3267;SDS011;1646;52.450;13.326;2023-06-22T05:40:55;9.37;;;8.07;;
3267;SDS011;1646;52.450;13.326;2023-06-22T05:45:54;10.60;;;7.63;;
3267;SDS011;1646;52.450;13.326;2023-06-22T05:50:52;11.67;;;9.53;;
3267;SDS011;1646;52.450;13.326;2023-06-22T05:55:52;11.60;;;8.80;;
3267;SDS011;1646;52.450;13.326;2023-06-22T06:00:50;9.33;;;7.50;;
3267;SDS011;1646;52.450;13.326;2023-06-22T06:05:49;10.30;;;8.27;;
3267;SDS011;1646;52.450;13.326;2023-06-22T06:10:47;8.50;;;7.67;;
3267;SDS011;1646;52.450;13.326;2023-06-22T06:15:47;8.60;;;7.27;;
3267;SDS011;1646;52.450;13.326;2023-06-22T06:20:47;12.60;;;7.13;;
3267;SDS011;1646;52.450;13.326;2023-06-22T06:25:46;8.10;;;7.30;;
3267;SDS011;1646;52.450;13.326;2023-06-22T06:30:44;10.10;;;7.43;;
3267;SDS011;1646;52.450;13.326;2023-06-22T06:35:45;6.77;;;6.07;;
3267;SDS011;1646;52.450;13.326;2023-06-22T06:40:43;6.10;;;5.50;;
3267;SDS011;1646;52.450;13.326;2023-06-22T06:45:41;11.40;;;5.43;;
3267;SDS011;1646;52.450;13.326;2023-06-22T06:50:40;6.87;;;4.60;;
3267;SDS011;1646;52.450;13.326;2023-06-22T06:55:41;7.63;;;4.53;;
3267;SDS011;1646;52.450;13.326;2023-06-22T07:00:42;5.90;;;4.83;;
3267;SDS011;1646;52.450;13.326;2023-06-22T07:05:40;9.73;;;4.73;;
3267;SDS011;1646;52.450;13.326;2023-06-22T07:10:39;5.10;;;4.60;;
3267;SDS011;1646;52.450;13.326;2023-06-22T07:15:38;9.67;;;4.40;;
3267;SDS011;1646;52.450;13.326;2023-06-22T07:20:37;4.63;;;4.23;;
3267;SDS011;1646;52.450;13.326;2023-06-22T07:25:35;4.10;;;3.60;;
3267;SDS011;1646;52.450;13.326;2023-06-22T07:30:34;3.90;;;3.60;;
3267;SDS011;1646;52.450;13.326;2023-06-22T07:35:34;4.70;;;3.50;;
3267;SDS011;1646;52.450;13.326;2023-06-22T07:40:32;4.00;;;3.47;;
3267;SDS011;1646;52.450;13.326;2023-06-22T07:45:31;4.60;;;3.63;;
3267;SDS011;1646;52.450;13.326;2023-06-22T07:50:31;4.80;;;3.67;;
3267;SDS011;1646;52.450;13.326;2023-06-22T07:55:31;3.77;;;3.47;;
3267;SDS011;1646;52.450;13.326;2023-06-22T08:00:29;3.83;;;3.33;;
3267;SDS011;1646;52.450;13.326;2023-06-22T08:05:29;6.57;;;3.60;;
3267;SDS011;1646;52.450;13.326;2023-06-22T08:10:28;4.07;;;3.00;;
3267;SDS011;1646;52.450;13.326;2023-06-22T08:15:27;4.20;;;3.17;;
3267;SDS011;1646;52.450;13.326;2023-06-22T08:20:26;4.40;;;2.93;;
3267;SDS011;1646;52.450;13.326;2023-06-22T08:25:24;3.30;;;3.00;;
3267;SDS011;1646;52.450;13.326;2023-06-22T08:30:23;6.37;;;3.17;;
3267;SDS011;1646;52.450;13.326;2023-06-22T08:35:23;3.87;;;2.63;;
3267;SDS011;1646;52.450;13.326;2023-06-22T08:40:22;5.27;;;3.93;;
3267;SDS011;1646;52.450;13.326;2023-06-22T08:45:20;3.33;;;2.73;;
3267;SDS011;1646;52.450;13.326;2023-06-22T08:50:19;2.63;;;2.37;;
3267;SDS011;1646;52.450;13.326;2023-06-22T08:55:19;3.67;;;2.90;;
3267;SDS011;1646;52.450;13.326;2023-06-22T09:00:18;3.40;;;3.10;;
3267;SDS011;1646;52.450;13.326;2023-06-22T09:05:17;3.40;;;3.10;;
3267;SDS011;1646;52.450;13.326;2023-06-22T09:10:15;3.20;;;2.90;;
3267;SDS011;1646;52.450;13.326;2023-06-22T09:15:15;4.23;;;3.53;;
3267;SDS011;1646;52.450;13.326;2023-06-22T09:20:14;5.00;;;3.43;;
3267;SDS011;1646;52.450;13.326;2023-06-22T09:25:12;4.57;;;3.30;;
3267;SDS011;1646;52.450;13.326;2023-06-22T09:30:11;6.83;;;3.40;;
3267;SDS011;1646;52.450;13.326;2023-06-22T09:35:11;5.90;;;3.37;;
3267;SDS011;1646;52.450;13.326;2023-06-22T09:40:10;3.60;;;3.30;;
3267;SDS011;1646;52.450;13.326;2023-06-22T09:45:10;3.97;;;3.60;;
3267;SDS011;1646;52.450;13.326;2023-06-22T09:50:08;4.97;;;3.10;;
3267;SDS011;1646;52.450;13.326;2023-06-22T09:55:08;4.67;;;4.10;;
3267;SDS011;1646;52.450;13.326;2023-06-22T10:00:07;6.97;;;4.10;;
3267;SDS011;1646;52.450;13.326;2023-06-22T10:05:08;4.77;;;3.63;;
3267;SDS011;1646;52.450;13.326;2023-06-22T10:10:09;11.50;;;3.83;;
3267;SDS011;1646;52.450;13.326;2023-06-22T10:15:07;5.90;;;3.63;;
3267;SDS011;1646;52.450;13.326;2023-06-22T10:20:08;3.63;;;3.33;;
3267;SDS011;1646;52.450;13.326;2023-06-22T10:25:11;6.07;;;3.67;;
3267;SDS011;1646;52.450;13.326;2023-06-22T10:30:11;4.40;;;4.00;;
3267;SDS011;1646;52.450;13.326;2023-06-22T10:35:10;4.60;;;3.90;;
3267;SDS011;1646;52.450;13.326;2023-06-22T10:40:12;7.40;;;4.37;;
3267;SDS011;1646;52.450;13.326;2023-06-22T10:45:12;3.77;;;3.37;;
3267;SDS011;1646;52.450;13.326;2023-06-22T10:50:11;4.97;;;3.77;;
3267;SDS011;1646;52.450;13.326;2023-06-22T10:55:09;3.80;;;3.33;;
3267;SDS011;1646;52.450;13.326;2023-06-22T11:00:10;3.97;;;3.57;;
3267;SDS011;1646;52.450;13.326;2023-06-22T11:05:09;3.43;;;3.03;;
3267;SDS011;1646;52.450;13.326;2023-06-22T11:10:07;7.53;;;3.60;;
3267;SDS011;1646;52.450;13.326;2023-06-22T11:15:07;3.80;;;3.50;;
3267;SDS011;1646;52.450;13.326;2023-06-22T11:20:07;4.07;;;3.67;;
3267;SDS011;1646;52.450;13.326;2023-06-22T11:25:08;3.70;;;3.40;;
3267;SDS011;1646;52.450;13.326;2023-06-22T11:30:08;3.23;;;3.03;;
3267;SDS011;1646;52.450;13.326;2023-06-22T11:35:08;6.67;;;3.60;;
3267;SDS011;1646;52.450;13.326;2023-06-22T11:40:07;4.20;;;3.90;;
3267;SDS011;1646;52.450;13.326;2023-06-22T11:45:06;4.03;;;3.67;;
3267;SDS011;1646;52.450;13.326;2023-06-22T11:50:05;3.53;;;3.23;;
3267;SDS011;1646;52.450;13.326;2023-06-22T11:55:06;3.67;;;3.37;;
3267;SDS011;1646;52.450;13.326;2023-06-22T12:00:05;4.90;;;3.60;;
3267;SDS011;1646;52.450;13.326;2023-06-22T12:05:12;4.27;;;3.87;;
3267;SDS011;1646;52.450;13.326;2023-06-22T12:10:12;4.57;;;3.97;;
3267;SDS011;1646;52.450;13.326;2023-06-22T12:15:10;4.43;;;3.53;;
3267;SDS011;1646;52.450;13.326;2023-06-22T12:20:09;4.00;;;3.57;;
3267;SDS011;1646;52.450;13.326;2023-06-22T12:25:08;4.00;;;3.60;;
3267;SDS011;1646;52.450;13.326;2023-06-22T12:30:08;4.90;;;4.03;;
3267;SDS011;1646;52.450;13.326;2023-06-22T12:35:07;3.90;;;3.60;;
3267;SDS011;1646;52.450;13.326;2023-06-22T12:40:10;4.63;;;4.23;;
3267;SDS011;1646;52.450;13.326;2023-06-22T12:45:11;5.03;;;3.63;;
3267;SDS011;1646;52.450;13.326;2023-06-22T12:50:09;4.17;;;3.77;;
3267;SDS011;1646;52.450;13.326;2023-06-22T12:55:08;4.37;;;3.97;;
3267;SDS011;1646;52.450;13.326;2023-06-22T13:00:07;4.93;;;4.53;;
3267;SDS011;1646;52.450;13.326;2023-06-22T13:05:08;5.90;;;5.30;;
3267;SDS011;1646;52.450;13.326;2023-06-22T13:10:07;4.40;;;4.10;;
3267;SDS011;1646;52.450;13.326;2023-06-22T13:15:06;7.23;;;3.90;;
3267;SDS011;1646;52.450;13.326;2023-06-22T13:20:05;4.47;;;4.07;;
3267;SDS011;1646;52.450;13.326;2023-06-22T13:25:06;4.60;;;4.20;;
3267;SDS011;1646;52.450;13.326;2023-06-22T13:30:08;4.10;;;3.80;;
3267;SDS011;1646;52.450;13.326;2023-06-22T13:35:11;6.23;;;4.40;;
3267;SDS011;1646;52.450;13.326;2023-06-22T13:40:10;5.53;;;4.10;;
3267;SDS011;1646;52.450;13.326;2023-06-22T13:45:09;11.20;;;5.30;;
3267;SDS011;1646;52.450;13.326;2023-06-22T13:50:08;5.80;;;4.27;;
3267;SDS011;1646;52.450;13.326;2023-06-22T13:55:08;5.43;;;5.03;;
3267;SDS011;1646;52.450;13.326;2023-06-22T14:00:07;8.20;;;4.90;;
3267;SDS011;1646;52.450;13.326;2023-06-22T14:05:09;5.17;;;4.67;;
3267;SDS011;1646;52.450;13.326;2023-06-22T14:10:10;6.53;;;5.03;;
3267;SDS011;1646;52.450;13.326;2023-06-22T14:15:09;4.63;;;3.90;;
3267;SDS011;1646;52.450;13.326;2023-06-22T14:20:08;4.60;;;4.20;;
3267;SDS011;1646;52.450;13.326;2023-06-22T14:25:06;9.20;;;4.43;;
3267;SDS011;1646;52.450;13.326;2023-06-22T14:30:07;4.80;;;4.40;;
3267;SDS011;1646;52.450;13.326;2023-06-22T14:35:06;4.63;;;4.23;;
3267;SDS011;1646;52.450;13.326;2023-06-22T14:40:05;7.07;;;6.37;;
3267;SDS011;1646;52.450;13.326;2023-06-22T14:45:05;8.90;;;4.03;;
3267;SDS011;1646;52.450;13.326;2023-06-22T14:50:05;5.77;;;4.23;;
3267;SDS011;1646;52.450;13.326;2023-06-22T14:55:04;4.30;;;3.90;;
3267;SDS011;1646;52.450;13.326;2023-06-22T15:00:04;4.27;;;3.97;;
3267;SDS011;1646;52.450;13.326;2023-06-22T15:05:05;5.07;;;4.67;;
3267;SDS011;1646;52.450;13.326;2023-06-22T15:10:03;4.07;;;3.77;;
3267;SDS011;1646;52.450;13.326;2023-06-22T15:15:03;4.97;;;4.57;;
3267;SDS011;1646;52.450;13.326;2023-06-22T15:20:02;9.60;;;4.20;;
3267;SDS011;1646;52.450;13.326;2023-06-22T15:25:03;4.30;;;4.00;;
3267;SDS011;1646;52.450;13.326;2023-06-22T15:30:02;5.57;;;4.53;;
3267;SDS011;1646;52.450;13.326;2023-06-22T15:35:01;5.57;;;5.03;;
3267;SDS011;1646;52.450;13.326;2023-06-22T15:40:00;3.97;;;3.70;;
3267;SDS011;1646;52.450;13.326;2023-06-22T15:45:00;4.60;;;4.20;;
3267;SDS011;1646;52.450;13.326;2023-06-22T15:49:59;4.80;;;4.40;;
3267;SDS011;1646;52.450;13.326;2023-06-22T15:54:57;5.00;;;4.60;;
3267;SDS011;1646;52.450;13.326;2023-06-22T15:59:57;6.73;;;5.17;;
3267;SDS011;1646;52.450;13.326;2023-06-22T16:04:56;4.33;;;4.03;;
3267;SDS011;1646;52.450;13.326;2023-06-22T16:09:56;5.80;;;4.80;;
3267;SDS011;1646;52.450;13.326;2023-06-22T16:14:54;4.67;;;4.10;;
3267;SDS011;1646;52.450;13.326;2023-06-22T16:19:52;4.60;;;4.10;;
3267;SDS011;1646;52.450;13.326;2023-06-22T16:24:53;4.83;;;4.40;;
3267;SDS011;1646;52.450;13.326;2023-06-22T16:29:52;4.70;;;4.30;;
3267;SDS011;1646;52.450;13.326;2023-06-22T16:34:50;6.33;;;4.80;;
3267;SDS011;1646;52.450;13.326;2023-06-22T16:39:48;13.27;;;5.30;;
3267;SDS011;1646;52.450;13.326;2023-06-22T16:44:48;17.20;;;6.00;;
3267;SDS011;1646;52.450;13.326;2023-06-22T16:49:46;17.17;;;5.70;;
3267;SDS011;1646;52.450;13.326;2023-06-22T16:54:45;6.83;;;5.40;;
3267;SDS011;1646;52.450;13.326;2023-06-22T16:59:57;6.97;;;4.83;;
3267;SDS011;1646;52.450;13.326;2023-06-22T17:04:55;5.73;;;5.03;;
3267;SDS011;1646;52.450;13.326;2023-06-22T17:09:54;6.80;;;4.80;;
3267;SDS011;1646;52.450;13.326;2023-06-22T17:14:54;7.40;;;4.70;;
3267;SDS011;1646;52.450;13.326;2023-06-22T17:19:58;5.80;;;4.97;;
3267;SDS011;1646;52.450;13.326;2023-06-22T17:24:56;5.03;;;4.57;;
3267;SDS011;1646;52.450;13.326;2023-06-22T17:30:07;6.80;;;4.73;;
3267;SDS011;1646;52.450;13.326;2023-06-22T17:35:07;5.03;;;4.53;;
3267;SDS011;1646;52.450;13.326;2023-06-22T17:40:11;5.00;;;4.60;;
3267;SDS011;1646;52.450;13.326;2023-06-22T17:45:16;6.57;;;5.40;;
3267;SDS011;1646;52.450;13.326;2023-06-22T17:50:16;13.70;;;5.27;;
3267;SDS011;1646;52.450;13.326;2023-06-22T17:55:14;6.00;;;5.10;;
3267;SDS011;1646;52.450;13.326;2023-06-22T18:00:13;7.67;;;5.13;;
3267;SDS011;1646;52.450;13.326;2023-06-22T18:05:15;6.73;;;5.60;;
3267;SDS011;1646;52.450;13.326;2023-06-22T18:10:13;5.07;;;4.60;;
3267;SDS011;1646;52.450;13.326;2023-06-22T18:15:11;5.53;;;4.73;;
3267;SDS011;1646;52.450;13.326;2023-06-22T18:20:10;5.93;;;5.33;;
3267;SDS011;1646;52.450;13.326;2023-06-22T18:25:11;8.33;;;4.90;;
3267;SDS011;1646;52.450;13.326;2023-06-22T18:30:10;6.03;;;5.03;;
3267;SDS011;1646;52.450;13.326;2023-06-22T18:35:09;6.37;;;5.07;;
3267;SDS011;1646;52.450;13.326;2023-06-22T18:40:08;6.23;;;5.63;;
3267;SDS011;1646;52.450;13.326;2023-06-22T18:45:22;5.17;;;4.67;;
3267;SDS011;1646;52.450;13.326;2023-06-22T18:50:34;5.83;;;4.90;;
3267;SDS011;1646;52.450;13.326;2023-06-22T18:55:34;8.77;;;5.10;;
3267;SDS011;1646;52.450;13.326;2023-06-22T19:00:34;5.57;;;5.03;;
3267;SDS011;1646;52.450;13.326;2023-06-22T19:05:39;5.90;;;5.13;;
3267;SDS011;1646;52.450;13.326;2023-06-22T19:10:38;5.90;;;5.33;;
3267;SDS011;1646;52.450;13.326;2023-06-22T19:15:40;5.70;;;5.07;;
3267;SDS011;1646;52.450;13.326;2023-06-22T19:20:39;5.90;;;5.27;;
3267;SDS011;1646;52.450;13.326;2023-06-22T19:25:37;6.03;;;5.40;;
3267;SDS011;1646;52.450;13.326;2023-06-22T19:30:44;5.37;;;4.90;;
3267;SDS011;1646;52.450;13.326;2023-06-22T19:35:42;7.47;;;4.80;;
3267;SDS011;1646;52.450;13.326;2023-06-22T19:40:41;5.57;;;4.83;;
3267;SDS011;1646;52.450;13.326;2023-06-22T19:45:39;7.10;;;6.40;;
3267;SDS011;1646;52.450;13.326;2023-06-22T19:50:40;7.43;;;6.70;;
3267;SDS011;1646;52.450;13.326;2023-06-22T19:55:40;5.90;;;5.30;;
3267;SDS011;1646;52.450;13.326;2023-06-22T20:00:39;6.97;;;5.43;;
3267;SDS011;1646;52.450;13.326;2023-06-22T20:05:42;7.23;;;5.10;;
3267;SDS011;1646;52.450;13.326;2023-06-22T20:10:42;12.03;;;5.70;;
3267;SDS011;1646;52.450;13.326;2023-06-22T20:15:41;6.60;;;5.50;;
3267;SDS011;1646;52.450;13.326;2023-06-22T20:20:43;5.73;;;5.00;;
3267;SDS011;1646;52.450;13.326;2023-06-22T20:25:42;11.40;;;6.07;;
3267;SDS011;1646;52.450;13.326;2023-06-22T20:30:59;11.00;;;7.00;;
3267;SDS011;1646;52.450;13.326;2023-06-22T20:36:00;13.23;;;8.97;;
3267;SDS011;1646;52.450;13.326;2023-06-22T20:40:59;22.63;;;11.40;;
3267;SDS011;1646;52.450;13.326;2023-06-22T20:45:57;18.50;;;12.70;;
3267;SDS011;1646;52.450;13.326;2023-06-22T20:50:56;19.00;;;12.10;;
3267;SDS011;1646;52.450;13.326;2023-06-22T20:55:55;19.00;;;12.50;;
3267;SDS011;1646;52.450;13.326;2023-06-22T21:00:54;16.33;;;12.70;;
3267;SDS011;1646;52.450;13.326;2023-06-22T21:05:57;13.47;;;11.37;;
3267;SDS011;1646;52.450;13.326;2023-06-22T21:10:57;13.53;;;11.50;;
3267;SDS011;1646;52.450;13.326;2023-06-22T21:15:55;14.63;;;11.57;;
3267;SDS011;1646;52.450;13.326;2023-06-22T21:20:53;17.33;;;12.10;;
3267;SDS011;1646;52.450;13.326;2023-06-22T21:25:51;16.33;;;11.87;;
3267;SDS011;1646;52.450;13.326;2023-06-22T21:30:51;18.10;;;10.50;;
3267;SDS011;1646;52.450;13.326;2023-06-22T21:35:49;11.33;;;10.13;;
3267;SDS011;1646;52.450;13.326;2023-06-22T21:40:48;11.27;;;8.90;;
3267;SDS011;1646;52.450;13.326;2023-06-22T21:45:46;11.40;;;9.80;;
3267;SDS011;1646;52.450;13.326;2023-06-22T21:50:46;12.30;;;11.00;;
3267;SDS011;1646;52.450;13.326;2023-06-22T21:55:44;19.60;;;14.80;;
3267;SDS011;1646;52.450;13.326;2023-06-22T22:00:42;18.93;;;15.70;;
3267;SDS011;1646;52.450;13.326;2023-06-22T22:05:41;16.23;;;14.60;;
3267;SDS011;1646;52.450;13.326;2023-06-22T22:10:43;15.67;;;14.17;;
3267;SDS011;1646;52.450;13.326;2023-06-22T22:15:42;17.87;;;15.67;;
3267;SDS011;1646;52.450;13.326;2023-06-22T22:20:40;20.17;;;15.90;;
3267;SDS011;1646;52.450;13.326;2023-06-22T22:25:38;16.47;;;13.80;;
3267;SDS011;1646;52.450;13.326;2023-06-22T22:30:38;16.17;;;14.47;;
3267;SDS011;1646;52.450;13.326;2023-06-22T22:35:36;15.00;;;13.50;;
3267;SDS011;1646;52.450;13.326;2023-06-22T22:40:34;13.90;;;11.80;;
3267;SDS011;1646;52.450;13.326;2023-06-22T22:45:33;17.63;;;14.00;;
3267;SDS011;1646;52.450;13.326;2023-06-22T22:50:32;15.93;;;12.30;;
3267;SDS011;1646;52.450;13.326;2023-06-22T22:55:30;12.60;;;11.20;;
3267;SDS011;1646;52.450;13.326;2023-06-22T23:00:29;15.43;;;13.17;;
3267;SDS011;1646;52.450;13.326;2023-06-22T23:05:27;14.17;;;12.73;;
3267;SDS011;1646;52.450;13.326;2023-06-22T23:10:28;13.23;;;11.93;;
3267;SDS011;1646;52.450;13.326;2023-06-22T23:15:26;15.60;;;12.13;;
3267;SDS011;1646;52.450;13.326;2023-06-22T23:20:25;12.93;;;11.63;;
3267;SDS011;1646;52.450;13.326;2023-06-22T23:25:28;17.00;;;11.70;;
3267;SDS011;1646;52.450;13.326;2023-06-22T23:30:29;11.67;;;10.57;;
3267;SDS011;1646;52.450;13.326;2023-06-22T23:35:28;12.40;;;11.20;;
3267;SDS011;1646;52.450;13.326;2023-06-22T23:40:28;11.83;;;10.60;;
3267;SDS011;1646;52.450;13.326;2023-06-22T23:45:27;10.13;;;9.00;;
3267;SDS011;1646;52.450;13.326;2023-06-22T23:50:25;12.57;;;9.93;;
3267;SDS011;1646;52.450;13.326;2023-06-22T23:55:24;11.93;;;10.80;;
